This is the latest recevied weather packets stored in our database for station/object W4CAT-WX. If no packets are shown the sender has not sent any weather packets the latest 10 day(s).
| Time | Temp. | Humidity | Pressure | Rain* | Wind** | Luminosity | Snow |
|---|---|---|---|---|---|---|---|
| 1777484525 | 18.89° C | 85% | 976 hPa | 0 mm | - | - | - |
| 1777483595 | 18.89° C | 87% | 976 hPa | 0 mm | - | - | - |
| 1777482665 | 19.44° C | 86% | 976 hPa | 0.25 mm | - | - | - |
| 1777481735 | 19.44° C | 88% | 975.6 hPa | 0.25 mm | - | - | - |
| 1777480835 | 18.89° C | 92% | 975.6 hPa | 0.25 mm | - | - | - |
| 1777479905 | 18.89° C | 91% | 976 hPa | 0.25 mm | - | - | - |
| 1777478975 | 20° C | 89% | 975.6 hPa | 0 mm | - | - | - |
| 1777478045 | 20° C | 90% | 975.6 hPa | 0 mm | - | - | - |
| 1777477145 | 19.44° C | 92% | 975.6 hPa | 0 mm | - | - | - |
| 1777476245 | 18.33° C | 96% | 975.3 hPa | 0 mm | - | - | - |
| 1777475315 | 17.78° C | 98% | 975.6 hPa | 0 mm | - | - | - |
| 1777474385 | 17.22° C | 98% | 975.3 hPa | 0 mm | - | - | - |
| 1777473455 | 17.22° C | 98% | 975.3 hPa | 0 mm | - | - | - |
| 1777472555 | 17.22° C | 98% | 974.9 hPa | 0 mm | - | - | - |
| 1777471625 | 17.22° C | 99% | 974.6 hPa | 0 mm | - | - | - |
| 1777470725 | 16.67° C | 99% | 974.3 hPa | 0 mm | - | - | - |
| 1777469825 | 16.67° C | 99% | 974.9 hPa | 0 mm | - | - | - |
| 1777468925 | 16.67° C | 99% | 974.9 hPa | 0 mm | - | - | - |
| 1777468025 | 16.67° C | 98% | 975.3 hPa | 0 mm | - | - | - |
| 1777467125 | 16.11° C | 99% | 974.9 hPa | 0 mm | - | - | - |
| 1777466225 | 16.11° C | 99% | 975.3 hPa | 0 mm | - | - | - |
| 1777465295 | 16.11° C | 99% | 974.9 hPa | 0 mm | - | - | - |
| 1777464395 | 16.11° C | 99% | 974.9 hPa | 0 mm | - | - | - |
| 1777463465 | 16.11° C | 99% | 974.9 hPa | 0 mm | - | - | - |
| 1777462535 | 16.11° C | 99% | 974.9 hPa | 0 mm | - | - | - |
* Rain latest hour (hover to see other rain measurements)
** Current wind speed in m/s (hover to see current wind gust speed)